Time,TemperatureF,DewpointF,PressureIn,WindDirection,WindDirectionDegrees,WindSpeedMPH,WindSpeedGustMPH,Humidity,HourlyPrecipIn,Conditions,Clouds,dailyrainin,SolarRadiationWatts/m^2,SoftwareType,DateUTC
2013-01-06 15:33:00,22.0,13.0,30.07,SSE,156,6.0,9.0,68,0.00,,,0.00,233.000000,,2013-01-06 21:33:00,
2013-01-06 15:43:00,22.0,13.0,30.07,SSE,156,6.0,9.0,68,0.00,,,0.00,233.000000,,2013-01-06 21:43:00,
2013-01-06 15:53:00,22.0,13.0,30.07,SSE,156,6.0,9.0,68,0.00,,,0.00,233.000000,,2013-01-06 21:53:00,
2013-01-06 16:02:00,22.0,13.0,30.07,SSE,156,6.0,9.0,68,0.00,,,0.00,233.000000,,2013-01-06 22:02:00,
2013-01-06 16:33:00,18.0,13.0,30.06,South,179,5.0,12.0,79,0.00,,,0.00,104.000000,,2013-01-06 22:33:00,
2013-01-06 16:43:00,18.0,13.0,30.06,South,179,5.0,12.0,79,0.00,,,0.00,104.000000,,2013-01-06 22:43:00,
2013-01-06 16:53:00,18.0,13.0,30.06,South,179,5.0,12.0,79,0.00,,,0.00,104.000000,,2013-01-06 22:53:00,
2013-01-06 17:02:00,18.0,13.0,30.06,South,179,5.0,12.0,79,0.00,,,0.00,104.000000,,2013-01-06 23:02:00,
2013-01-06 17:33:00,16.0,13.0,30.04,South,189,6.0,11.0,86,0.00,,,0.00,13.000000,,2013-01-06 23:33:00,
2013-01-06 17:43:00,16.0,13.0,30.04,South,189,6.0,11.0,86,0.00,,,0.00,13.000000,,2013-01-06 23:43:00,
2013-01-06 17:53:00,16.0,13.0,30.04,South,189,6.0,11.0,86,0.00,,,0.00,13.000000,,2013-01-06 23:53:00,
2013-01-06 18:02:00,16.0,13.0,30.04,South,189,6.0,11.0,86,0.00,,,0.00,13.000000,,2013-01-07 00:02:00,
2013-01-06 18:33:00,15.0,12.0,30.02,SSW,193,6.0,11.0,88,0.00,,,0.00,1.000000,,2013-01-07 00:33:00,
2013-01-06 18:43:00,15.0,12.0,30.02,SSW,193,6.0,11.0,88,0.00,,,0.00,1.000000,,2013-01-07 00:43:00,
2013-01-06 18:53:00,15.0,12.0,30.02,SSW,193,6.0,11.0,88,0.00,,,0.00,1.000000,,2013-01-07 00:53:00,
2013-01-06 19:02:00,15.0,12.0,30.02,SSW,193,6.0,11.0,88,0.00,,,0.00,1.000000,,2013-01-07 01:02:00,
2013-01-06 19:32:00,15.0,12.0,29.99,South,189,6.0,10.0,88,0.00,,,0.00,1.000000,,2013-01-07 01:32:00,
2013-01-06 19:43:00,15.0,12.0,29.99,South,189,6.0,10.0,88,0.00,,,0.00,1.000000,,2013-01-07 01:43:00,
2013-01-06 19:53:00,15.0,12.0,29.99,South,189,6.0,10.0,88,0.00,,,0.00,1.000000,,2013-01-07 01:53:00,
2013-01-06 20:02:00,15.0,12.0,29.99,South,189,6.0,10.0,88,0.00,,,0.00,1.000000,,2013-01-07 02:02:00,
2013-01-06 20:32:00,15.0,12.0,29.93,SSE,167,6.0,11.0,88,0.00,,,0.00,0.000000,,2013-01-07 02:32:00,
2013-01-06 20:43:00,15.0,12.0,29.93,SSE,167,6.0,11.0,88,0.00,,,0.00,0.000000,,2013-01-07 02:43:00,
2013-01-06 20:53:00,15.0,12.0,29.93,SSE,167,6.0,11.0,88,0.00,,,0.00,0.000000,,2013-01-07 02:53:00,
2013-01-06 21:02:00,15.0,12.0,29.93,SSE,167,6.0,11.0,88,0.00,,,0.00,0.000000,,2013-01-07 03:02:00,
2013-01-06 21:33:00,15.0,12.0,29.88,South,171,6.0,13.0,87,0.00,,,0.00,1.000000,,2013-01-07 03:33:00,
2013-01-06 21:43:00,15.0,12.0,29.88,South,171,6.0,13.0,87,0.00,,,0.00,1.000000,,2013-01-07 03:43:00,
2013-01-06 21:53:00,15.0,12.0,29.88,South,171,6.0,13.0,87,0.00,,,0.00,1.000000,,2013-01-07 03:53:00,
2013-01-06 22:02:00,15.0,12.0,29.88,South,171,6.0,13.0,87,0.00,,,0.00,1.000000,,2013-01-07 04:02:00,
2013-01-06 22:33:00,14.0,11.0,29.86,South,175,7.0,14.0,86,0.00,,,0.00,0.000000,,2013-01-07 04:33:00,
2013-01-06 22:42:00,14.0,11.0,29.86,South,175,7.0,14.0,86,0.00,,,0.00,0.000000,,2013-01-07 04:42:00,
2013-01-06 22:52:00,14.0,11.0,29.86,South,175,7.0,14.0,86,0.00,,,0.00,0.000000,,2013-01-07 04:52:00,
2013-01-06 23:03:00,14.0,11.0,29.86,South,175,7.0,14.0,86,0.00,,,0.00,0.000000,,2013-01-07 05:03:00,
2013-01-06 23:33:00,14.0,10.0,29.82,South,179,6.0,14.0,84,0.00,,,0.00,1.000000,,2013-01-07 05:33:00,
2013-01-06 23:43:00,14.0,10.0,29.82,South,179,6.0,14.0,84,0.00,,,0.00,1.000000,,2013-01-07 05:43:00,
2013-01-06 23:53:00,14.0,10.0,29.82,South,179,6.0,14.0,84,0.00,,,0.00,1.000000,,2013-01-07 05:53:00,